createdAt,value
2019-03-15T00:01:34.532Z,16.60
2019-03-15T00:04:04.485Z,13.27
2019-03-15T00:06:34.356Z,11.97
2019-03-15T00:09:07.434Z,17.47
2019-03-15T00:11:38.402Z,15.73
2019-03-15T00:14:08.387Z,19.40
2019-03-15T00:16:38.354Z,21.03
2019-03-15T00:19:08.251Z,12.60
2019-03-15T00:21:38.143Z,12.70
2019-03-15T00:24:07.957Z,18.57
2019-03-15T00:26:38.164Z,15.23
2019-03-15T00:29:08.095Z,15.93
2019-03-15T00:31:37.989Z,9.30
2019-03-15T00:34:08.800Z,13.00
2019-03-15T00:36:38.582Z,14.63
2019-03-15T00:39:08.533Z,14.67
2019-03-15T00:41:38.398Z,13.33
2019-03-15T00:44:08.237Z,14.30
2019-03-15T00:46:38.006Z,15.13
2019-03-15T00:49:08.204Z,10.13
2019-03-15T00:51:38.437Z,17.77
2019-03-15T00:54:08.394Z,13.60
2019-03-15T00:56:38.263Z,16.50
2019-03-15T00:59:08.188Z,13.87
2019-03-15T01:01:38.011Z,17.20
2019-03-15T01:04:09.507Z,13.67
2019-03-15T01:06:41.084Z,11.33
2019-03-15T01:09:10.885Z,11.37
2019-03-15T01:11:40.844Z,16.60
2019-03-15T01:14:11.138Z,13.40
2019-03-15T01:16:41.074Z,13.33
2019-03-15T01:19:10.957Z,11.50
2019-03-15T01:21:40.825Z,16.43
2019-03-15T01:24:11.050Z,14.00
2019-03-15T01:26:41.198Z,11.87
2019-03-15T01:29:11.316Z,13.57
2019-03-15T01:31:42.236Z,13.30
2019-03-15T01:34:12.393Z,17.47
2019-03-15T01:36:42.263Z,12.07
2019-03-15T01:39:13.548Z,8.37
2019-03-15T01:41:43.678Z,11.30
2019-03-15T01:44:14.099Z,15.70
2019-03-15T01:46:44.222Z,15.93
2019-03-15T01:49:14.099Z,10.73
2019-03-15T01:51:43.950Z,13.10
2019-03-15T01:54:13.827Z,12.33
2019-03-15T01:56:43.980Z,13.03
2019-03-15T01:59:13.760Z,10.10
2019-03-15T02:01:43.609Z,11.97
2019-03-15T02:04:13.447Z,9.70
2019-03-15T02:06:43.909Z,12.10
2019-03-15T02:09:14.428Z,15.03
2019-03-15T02:11:44.274Z,8.33
2019-03-15T02:14:14.213Z,10.50
2019-03-15T02:16:44.139Z,12.33
2019-03-15T02:19:14.033Z,12.07
2019-03-15T02:21:43.939Z,9.43
2019-03-15T02:24:14.042Z,7.57
2019-03-15T02:26:43.893Z,5.90
2019-03-15T02:29:13.867Z,10.87
2019-03-15T02:31:43.810Z,11.90
2019-03-15T02:34:13.596Z,11.30
2019-03-15T02:36:44.062Z,9.73
2019-03-15T02:39:14.257Z,10.17
2019-03-15T02:41:44.218Z,7.93
2019-03-15T02:44:14.190Z,15.87
2019-03-15T02:46:44.289Z,8.10
2019-03-15T02:49:14.439Z,13.97
2019-03-15T02:51:44.366Z,9.03
2019-03-15T02:54:14.213Z,14.23
2019-03-15T02:56:44.108Z,10.27
2019-03-15T02:59:13.953Z,8.83
2019-03-15T03:01:44.918Z,10.00
2019-03-15T03:04:14.798Z,9.63
2019-03-15T03:06:46.207Z,9.50
2019-03-15T03:09:16.066Z,7.33
2019-03-15T03:11:46.004Z,6.47
2019-03-15T03:14:15.782Z,8.60
2019-03-15T03:16:46.224Z,11.60
2019-03-15T03:19:16.996Z,9.50
2019-03-15T03:21:47.250Z,8.07
2019-03-15T03:24:17.746Z,8.43
2019-03-15T03:26:47.588Z,9.23
2019-03-15T03:29:19.281Z,10.67
2019-03-15T03:31:49.785Z,6.03
2019-03-15T03:34:19.581Z,8.97
2019-03-15T03:36:49.454Z,9.17
2019-03-15T03:39:19.704Z,8.17
2019-03-15T03:41:49.486Z,9.17
2019-03-15T03:44:20.387Z,9.53
2019-03-15T03:46:50.161Z,15.23
2019-03-15T03:49:20.015Z,13.33
2019-03-15T03:51:49.967Z,10.40
2019-03-15T03:54:20.228Z,9.60
2019-03-15T03:56:50.172Z,11.60
2019-03-15T03:59:20.105Z,7.67
2019-03-15T04:01:50.344Z,10.10
2019-03-15T04:04:20.515Z,8.73
2019-03-15T04:06:50.445Z,9.03
2019-03-15T04:09:20.701Z,7.50
2019-03-15T04:11:55.762Z,9.37
2019-03-15T04:14:22.785Z,8.87
2019-03-15T04:16:52.674Z,11.07
2019-03-15T04:19:23.234Z,10.30
2019-03-15T04:21:53.188Z,6.90
2019-03-15T04:24:25.006Z,7.07
2019-03-15T04:26:55.548Z,10.03
2019-03-15T04:29:25.312Z,8.33
2019-03-15T04:31:55.567Z,9.83
2019-03-15T04:34:28.204Z,10.97
2019-03-15T04:36:57.454Z,10.43
2019-03-15T04:39:27.313Z,11.33
2019-03-15T04:41:57.089Z,11.00
2019-03-15T04:44:26.883Z,11.73
2019-03-15T04:46:56.733Z,12.07
2019-03-15T04:49:26.519Z,16.10
2019-03-15T04:51:56.769Z,11.50
2019-03-15T04:54:26.646Z,9.53
2019-03-15T04:56:56.813Z,8.93
2019-03-15T04:59:26.876Z,12.63
2019-03-15T05:01:57.195Z,11.70
2019-03-15T05:04:27.085Z,8.70
2019-03-15T05:06:57.120Z,9.33
2019-03-15T05:09:27.443Z,12.97
2019-03-15T05:11:57.284Z,12.73
2019-03-15T05:14:27.162Z,11.97
2019-03-15T05:16:57.197Z,11.63
2019-03-15T05:19:27.115Z,15.50
2019-03-15T05:21:57.632Z,12.07
2019-03-15T05:24:27.540Z,10.33
2019-03-15T05:26:57.477Z,10.10
2019-03-15T05:29:27.415Z,14.23
2019-03-15T05:31:57.353Z,13.50
2019-03-15T05:34:27.151Z,14.47
2019-03-15T05:36:57.420Z,10.53
2019-03-15T05:39:27.344Z,7.63
2019-03-15T05:41:57.286Z,17.93
2019-03-15T05:44:27.046Z,8.10
2019-03-15T05:46:56.876Z,10.00
2019-03-15T05:49:26.647Z,9.93
2019-03-15T05:51:56.719Z,13.20
2019-03-15T05:54:27.244Z,15.47
2019-03-15T05:56:57.191Z,12.97
2019-03-15T05:59:27.267Z,15.57
2019-03-15T06:01:57.636Z,13.00
2019-03-15T06:04:27.481Z,9.80
2019-03-15T06:06:57.322Z,14.20
2019-03-15T06:09:27.222Z,12.80
2019-03-15T06:11:57.194Z,13.83
2019-03-15T06:14:27.717Z,13.93
2019-03-15T06:16:57.591Z,17.00
2019-03-15T06:19:27.440Z,12.87
2019-03-15T06:21:57.655Z,24.50
2019-03-15T06:24:27.720Z,17.83
2019-03-15T06:26:57.574Z,18.23
2019-03-15T06:29:27.449Z,19.37
2019-03-15T06:31:57.375Z,12.63
2019-03-15T06:34:27.260Z,18.27
2019-03-15T06:36:57.066Z,19.27
2019-03-15T06:39:27.090Z,14.40
2019-03-15T06:41:57.172Z,14.50
2019-03-15T06:44:27.462Z,11.97
2019-03-15T06:46:57.327Z,12.73
2019-03-15T06:49:27.216Z,15.90
2019-03-15T06:51:57.167Z,10.30
2019-03-15T06:54:28.106Z,13.83
2019-03-15T06:56:58.227Z,13.73
2019-03-15T06:59:29.147Z,7.40
2019-03-15T07:02:00.101Z,13.67
2019-03-15T07:04:30.223Z,12.17
2019-03-15T07:07:00.395Z,11.37
2019-03-15T07:09:31.148Z,14.83
2019-03-15T07:12:09.165Z,10.47
2019-03-15T07:14:32.948Z,11.23
2019-03-15T07:17:02.889Z,16.00
2019-03-15T07:19:33.036Z,10.03
2019-03-15T07:22:02.811Z,11.20
2019-03-15T07:24:32.585Z,10.60
2019-03-15T07:27:12.889Z,13.40
2019-03-15T07:29:35.141Z,13.77
2019-03-15T07:32:05.079Z,9.33
2019-03-15T07:34:35.241Z,12.97
2019-03-15T07:37:05.089Z,12.07
2019-03-15T07:39:35.225Z,7.47
2019-03-15T07:42:05.211Z,11.37
2019-03-15T07:44:35.356Z,11.03
2019-03-15T07:47:05.280Z,12.37
2019-03-15T07:49:35.075Z,16.23
2019-03-15T07:52:05.006Z,18.67
2019-03-15T07:54:38.333Z,10.80
2019-03-15T07:57:07.405Z,10.60
2019-03-15T07:59:37.263Z,10.73
2019-03-15T08:02:07.173Z,12.17
2019-03-15T08:04:37.032Z,11.03
2019-03-15T08:07:07.187Z,14.30
2019-03-15T08:09:37.044Z,7.17
2019-03-15T08:12:06.919Z,8.53
2019-03-15T08:14:36.782Z,7.40
2019-03-15T08:17:06.728Z,7.57
2019-03-15T08:19:36.513Z,10.83
2019-03-15T08:22:06.436Z,8.80
2019-03-15T08:24:36.855Z,7.90
2019-03-15T08:27:06.787Z,8.77
2019-03-15T08:29:36.626Z,9.00
2019-03-15T08:32:06.553Z,5.53
2019-03-15T08:34:36.754Z,6.80
2019-03-15T08:37:06.709Z,4.90
2019-03-15T08:39:36.552Z,9.03
2019-03-15T08:42:06.515Z,10.83
2019-03-15T08:44:36.785Z,7.53
2019-03-15T08:47:06.634Z,10.27
2019-03-15T08:49:36.559Z,10.73
2019-03-15T08:52:06.513Z,9.53
2019-03-15T08:54:36.747Z,7.90
2019-03-15T08:57:06.964Z,6.63
2019-03-15T08:59:37.139Z,10.43
2019-03-15T09:02:07.005Z,7.97
2019-03-15T09:04:36.875Z,10.80
2019-03-15T09:07:06.813Z,11.73
2019-03-15T09:09:36.762Z,9.60
2019-03-15T09:12:07.851Z,11.93
2019-03-15T09:14:38.858Z,13.03
2019-03-15T09:17:08.957Z,10.70
2019-03-15T09:19:39.177Z,6.10
2019-03-15T09:22:09.315Z,8.47
2019-03-15T09:24:39.188Z,9.30
2019-03-15T09:27:10.493Z,8.13
2019-03-15T09:29:40.600Z,7.50
2019-03-15T09:32:10.527Z,9.50
2019-03-15T09:34:40.485Z,9.50
2019-03-15T09:37:10.377Z,3.53
2019-03-15T09:39:41.327Z,3.00
2019-03-15T09:42:11.288Z,4.13
2019-03-15T09:44:41.157Z,4.73
2019-03-15T09:47:11.353Z,3.90
2019-03-15T09:49:41.237Z,3.63
2019-03-15T09:52:11.440Z,3.70
2019-03-15T09:54:41.717Z,3.63
2019-03-15T09:57:11.568Z,3.20
2019-03-15T09:59:41.528Z,3.23
2019-03-15T10:02:11.378Z,4.83
2019-03-15T10:04:41.934Z,3.33
2019-03-15T10:07:11.908Z,4.67
2019-03-15T10:09:46.081Z,6.40
2019-03-15T10:12:14.462Z,7.67
2019-03-15T10:14:44.326Z,8.30
2019-03-15T10:17:14.186Z,3.27
2019-03-15T10:19:44.065Z,4.40
2019-03-15T10:22:14.025Z,4.17
2019-03-15T10:24:44.990Z,3.60
2019-03-15T10:27:14.917Z,4.87
2019-03-15T10:29:44.775Z,5.57
2019-03-15T10:32:14.662Z,3.00
2019-03-15T10:34:44.601Z,5.83
2019-03-15T10:37:14.530Z,5.67
2019-03-15T10:39:44.701Z,5.43
2019-03-15T10:42:14.548Z,5.67
2019-03-15T10:44:44.327Z,4.87
2019-03-15T10:47:14.181Z,7.30
2019-03-15T10:49:44.053Z,7.13
2019-03-15T10:52:14.257Z,9.60
2019-03-15T10:54:44.474Z,7.20
2019-03-15T10:57:14.406Z,5.73
2019-03-15T10:59:44.541Z,7.10
2019-03-15T11:02:14.883Z,6.60
2019-03-15T11:04:45.097Z,4.77
2019-03-15T11:07:14.979Z,4.10
2019-03-15T11:09:45.132Z,3.77
2019-03-15T11:12:14.975Z,5.47
2019-03-15T11:14:45.060Z,4.40
2019-03-15T11:17:15.047Z,8.70
2019-03-15T11:19:45.028Z,8.97
2019-03-15T11:22:14.976Z,10.10
2019-03-15T11:24:44.915Z,7.80
2019-03-15T11:27:15.199Z,8.50
2019-03-15T11:29:45.176Z,9.00
2019-03-15T11:32:15.127Z,9.97
2019-03-15T11:34:45.016Z,10.00
2019-03-15T11:37:14.909Z,9.40
2019-03-15T11:39:44.818Z,11.40
2019-03-15T11:42:15.093Z,9.80
2019-03-15T11:44:45.061Z,10.73
2019-03-15T11:47:14.988Z,16.30
2019-03-15T11:49:44.773Z,11.63
2019-03-15T11:52:14.713Z,12.60
2019-03-15T11:54:44.928Z,15.87
2019-03-15T11:57:14.868Z,13.53
2019-03-15T11:59:44.732Z,12.10
2019-03-15T12:02:14.676Z,11.17
2019-03-15T12:04:44.623Z,9.87
2019-03-15T12:07:14.425Z,16.23
2019-03-15T12:09:44.771Z,11.10
2019-03-15T12:12:14.640Z,15.50
2019-03-15T12:14:45.387Z,12.93
2019-03-15T12:17:15.314Z,9.87
2019-03-15T12:19:45.554Z,13.27
2019-03-15T12:22:15.366Z,14.60
2019-03-15T12:24:45.295Z,9.40
2019-03-15T12:27:15.500Z,11.53
2019-03-15T12:29:46.072Z,12.93
2019-03-15T12:32:16.722Z,13.40
2019-03-15T12:34:46.822Z,12.90
2019-03-15T12:37:16.744Z,12.20
2019-03-15T12:39:46.696Z,10.10
2019-03-15T12:42:16.884Z,12.73
2019-03-15T12:44:47.135Z,11.80
2019-03-15T12:47:17.134Z,10.93
2019-03-15T12:49:47.263Z,10.27
2019-03-15T12:52:20.496Z,5.10
2019-03-15T12:54:49.491Z,6.80
2019-03-15T12:57:19.437Z,7.47
2019-03-15T12:59:50.922Z,10.50
2019-03-15T13:02:20.953Z,9.53
2019-03-15T13:04:52.205Z,7.97
2019-03-15T13:07:22.236Z,10.97
2019-03-15T13:09:52.016Z,8.07
2019-03-15T13:12:21.908Z,7.10
2019-03-15T13:14:51.782Z,9.73
2019-03-15T13:17:21.633Z,8.37
2019-03-15T13:19:55.419Z,8.10
2019-03-15T13:22:23.554Z,7.40
2019-03-15T13:24:53.681Z,11.00
2019-03-15T13:27:23.870Z,13.23
2019-03-15T13:29:54.382Z,10.07
2019-03-15T13:32:24.368Z,7.23
2019-03-15T13:34:54.165Z,13.30
2019-03-15T13:37:24.467Z,9.83
2019-03-15T13:39:54.730Z,10.00
2019-03-15T13:42:26.993Z,8.10
2019-03-15T13:44:57.223Z,8.30
2019-03-15T13:47:28.128Z,7.03
2019-03-15T13:49:58.006Z,12.20
2019-03-15T13:52:27.943Z,8.23
2019-03-15T13:54:58.214Z,9.80
2019-03-15T13:57:28.162Z,7.13
2019-03-15T13:59:58.252Z,9.30
2019-03-15T14:02:28.523Z,12.80
2019-03-15T14:04:58.393Z,7.90
2019-03-15T14:07:28.299Z,8.50
2019-03-15T14:09:58.255Z,8.47
2019-03-15T14:12:28.037Z,6.47
2019-03-15T14:14:57.915Z,8.33
2019-03-15T14:17:27.700Z,10.27
2019-03-15T14:19:57.485Z,7.67
2019-03-15T14:22:27.269Z,7.47
2019-03-15T14:24:57.541Z,7.03
2019-03-15T14:27:37.029Z,5.50
2019-03-15T14:29:59.137Z,6.37
2019-03-15T14:32:28.974Z,6.40
2019-03-15T14:34:58.770Z,6.70
2019-03-15T14:37:28.903Z,8.03
2019-03-15T14:39:58.884Z,8.07
2019-03-15T14:42:29.007Z,9.40
2019-03-15T14:44:59.264Z,5.53
2019-03-15T14:47:29.453Z,6.50
2019-03-15T14:49:59.668Z,9.47
2019-03-15T14:52:29.837Z,5.80
2019-03-15T14:54:59.681Z,3.13
2019-03-15T14:57:29.650Z,6.67
2019-03-15T14:59:59.509Z,8.80
2019-03-15T15:02:29.437Z,8.77
2019-03-15T15:04:59.339Z,9.00
2019-03-15T15:07:29.170Z,7.97
2019-03-15T15:09:59.019Z,6.73
2019-03-15T15:12:28.880Z,6.50
2019-03-15T15:14:58.732Z,9.07
2019-03-15T15:17:28.876Z,7.73
2019-03-15T15:19:58.708Z,4.90
2019-03-15T15:22:28.981Z,6.33
2019-03-15T15:24:58.823Z,8.03
2019-03-15T15:27:28.683Z,5.97
2019-03-15T15:29:58.450Z,5.33
2019-03-15T15:32:28.323Z,5.70
2019-03-15T15:34:58.237Z,8.87
2019-03-15T15:37:28.169Z,10.50
2019-03-15T15:40:00.168Z,6.03
2019-03-15T15:42:30.579Z,7.97
2019-03-15T15:45:00.521Z,8.07
2019-03-15T15:47:30.921Z,10.73
2019-03-15T15:50:01.352Z,6.90
2019-03-15T15:52:32.590Z,8.80
2019-03-15T15:55:02.508Z,7.63
2019-03-15T15:57:32.467Z,7.60
2019-03-15T16:00:02.397Z,6.00
2019-03-15T16:02:32.239Z,10.00
2019-03-15T16:05:02.155Z,7.03
2019-03-15T16:07:32.086Z,8.57
2019-03-15T16:10:01.845Z,5.93
2019-03-15T16:12:31.698Z,7.07
2019-03-15T16:15:01.646Z,7.47
2019-03-15T16:17:31.570Z,6.10
2019-03-15T16:20:01.342Z,10.70
2019-03-15T16:22:31.167Z,12.57
2019-03-15T16:25:01.697Z,13.07
2019-03-15T16:27:31.477Z,6.33
2019-03-15T16:30:01.737Z,7.73
2019-03-15T16:32:32.954Z,6.80
2019-03-15T16:35:02.908Z,6.27
2019-03-15T16:37:33.070Z,4.67
2019-03-15T16:40:03.371Z,4.07
2019-03-15T16:42:33.242Z,3.57
2019-03-15T16:45:03.355Z,5.20
2019-03-15T16:47:34.457Z,5.80
2019-03-15T16:50:06.484Z,6.40
2019-03-15T16:52:36.368Z,5.93
2019-03-15T16:55:06.851Z,3.87
2019-03-15T16:57:36.708Z,4.97
2019-03-15T17:00:07.563Z,6.23
2019-03-15T17:02:37.514Z,4.80
2019-03-15T17:05:08.823Z,5.63
2019-03-15T17:07:38.759Z,6.43
2019-03-15T17:10:09.592Z,4.13
2019-03-15T17:12:39.532Z,3.77
2019-03-15T17:15:11.154Z,4.00
2019-03-15T17:17:41.358Z,5.60
2019-03-15T17:20:12.007Z,6.47
2019-03-15T17:22:41.988Z,4.97
2019-03-15T17:25:12.073Z,6.70
2019-03-15T17:27:42.120Z,6.00
2019-03-15T17:30:13.175Z,5.83
2019-03-15T17:32:43.258Z,4.13
2019-03-15T17:35:13.438Z,5.37
2019-03-15T17:37:43.528Z,7.20
2019-03-15T17:40:13.540Z,4.30
2019-03-15T17:42:43.570Z,5.47
2019-03-15T17:45:13.819Z,3.37
2019-03-15T17:47:43.796Z,7.17
2019-03-15T17:50:14.884Z,2.80
2019-03-15T17:52:44.808Z,2.93
2019-03-15T17:55:15.650Z,2.83
2019-03-15T17:57:46.218Z,5.53
2019-03-15T18:00:24.341Z,5.77
2019-03-15T18:02:54.562Z,4.03
2019-03-15T18:05:24.421Z,3.10
2019-03-15T18:07:54.297Z,6.27
2019-03-15T18:10:24.510Z,5.23
2019-03-15T18:12:54.470Z,4.87
2019-03-15T18:15:24.758Z,5.30
2019-03-15T18:17:54.714Z,11.57
2019-03-15T18:20:24.677Z,9.47
2019-03-15T18:22:54.610Z,11.57
2019-03-15T18:25:24.562Z,8.27
2019-03-15T18:27:54.530Z,5.50
2019-03-15T18:30:24.477Z,5.30
2019-03-15T18:32:54.407Z,3.90
2019-03-15T18:35:33.525Z,7.17
2019-03-15T18:37:56.206Z,2.77
2019-03-15T18:40:26.215Z,3.00
2019-03-15T18:42:56.175Z,3.47
2019-03-15T18:45:26.234Z,4.60
2019-03-15T18:47:56.225Z,4.93
2019-03-15T18:50:26.202Z,3.07
2019-03-15T18:52:56.456Z,2.23
2019-03-15T18:55:26.309Z,6.27
2019-03-15T18:57:56.326Z,4.33
2019-03-15T19:00:26.308Z,6.53
2019-03-15T19:02:56.251Z,6.50
2019-03-15T19:05:26.841Z,5.07
2019-03-15T19:07:56.690Z,7.40
2019-03-15T19:10:27.271Z,6.63
2019-03-15T19:12:57.357Z,4.97
2019-03-15T19:15:27.316Z,7.63
2019-03-15T19:17:57.172Z,6.20
2019-03-15T19:20:27.088Z,6.47
2019-03-15T19:22:57.023Z,8.73
2019-03-15T19:25:26.975Z,6.97
2019-03-15T19:27:56.892Z,4.57
2019-03-15T19:30:26.845Z,4.47
2019-03-15T19:32:56.712Z,6.67
2019-03-15T19:35:26.659Z,6.47
2019-03-15T19:37:56.718Z,9.30
2019-03-15T19:40:26.854Z,9.30
2019-03-15T19:42:57.225Z,8.73
2019-03-15T19:45:27.166Z,12.87
2019-03-15T19:47:57.321Z,14.20
2019-03-15T19:50:27.246Z,8.83
2019-03-15T19:52:57.546Z,9.73
2019-03-15T19:55:28.441Z,13.23
2019-03-15T19:57:58.506Z,19.13
2019-03-15T20:00:28.417Z,8.23
2019-03-15T20:02:58.594Z,23.93
2019-03-15T20:05:28.765Z,9.27
2019-03-15T20:07:58.729Z,15.00
2019-03-15T20:10:29.039Z,15.97
2019-03-15T20:13:02.369Z,16.63
2019-03-15T20:15:30.883Z,14.27
2019-03-15T20:18:00.902Z,13.53
2019-03-15T20:20:30.921Z,15.37
2019-03-15T20:23:01.275Z,12.73
2019-03-15T20:25:31.483Z,11.70
2019-03-15T20:28:03.915Z,13.27
2019-03-15T20:30:33.240Z,12.33
2019-03-15T20:33:03.145Z,10.37
2019-03-15T20:35:33.102Z,13.93
2019-03-15T20:38:02.987Z,15.83
2019-03-15T20:40:33.177Z,14.20
2019-03-15T20:43:03.047Z,12.00
2019-03-15T20:45:32.994Z,15.03
2019-03-15T20:48:02.852Z,15.20
2019-03-15T20:50:45.881Z,16.97
2019-03-15T20:53:09.823Z,17.10
2019-03-15T20:55:36.072Z,11.20
2019-03-15T20:58:06.142Z,17.50
2019-03-15T21:00:36.425Z,17.43
2019-03-15T21:03:06.420Z,11.87
2019-03-15T21:05:36.802Z,10.53
2019-03-15T21:08:06.805Z,9.53
2019-03-15T21:10:37.483Z,7.63
2019-03-15T21:13:07.425Z,8.73
2019-03-15T21:15:37.380Z,13.47
2019-03-15T21:18:07.346Z,10.23
2019-03-15T21:20:37.662Z,9.77
2019-03-15T21:23:07.603Z,10.47
2019-03-15T21:25:37.476Z,13.40
2019-03-15T21:28:07.399Z,16.53
2019-03-15T21:30:47.784Z,10.33
2019-03-15T21:33:09.458Z,19.27
2019-03-15T21:35:39.401Z,13.17
2019-03-15T21:38:09.780Z,13.53
2019-03-15T21:40:40.335Z,10.90
2019-03-15T21:43:10.223Z,13.83
2019-03-15T21:45:40.154Z,13.10
2019-03-15T21:48:10.160Z,14.70
2019-03-15T21:50:40.135Z,14.17
2019-03-15T21:53:10.097Z,14.87
2019-03-15T21:55:40.618Z,17.67
2019-03-15T21:58:10.544Z,9.70
2019-03-15T22:00:40.821Z,15.10
2019-03-15T22:03:10.696Z,14.67
2019-03-15T22:05:40.549Z,19.77
2019-03-15T22:08:10.804Z,13.13
2019-03-15T22:10:40.924Z,13.87
2019-03-15T22:13:11.178Z,12.83
2019-03-15T22:15:41.267Z,11.60
2019-03-15T22:18:11.550Z,16.57
2019-03-15T22:20:42.012Z,15.97
2019-03-15T22:23:12.241Z,13.23
2019-03-15T22:25:43.132Z,13.37
2019-03-15T22:28:12.995Z,9.83
2019-03-15T22:30:42.847Z,11.67
2019-03-15T22:33:12.798Z,12.17
2019-03-15T22:35:42.699Z,12.73
2019-03-15T22:38:25.214Z,19.00
2019-03-15T22:40:44.318Z,17.07
2019-03-15T22:43:14.150Z,13.13
2019-03-15T22:45:44.008Z,18.47
2019-03-15T22:48:13.879Z,16.83
2019-03-15T22:50:43.773Z,15.13
2019-03-15T22:53:13.706Z,9.33
2019-03-15T22:55:43.627Z,16.33
2019-03-15T22:58:13.594Z,12.07
2019-03-15T23:00:44.110Z,13.40
2019-03-15T23:03:14.110Z,14.77
2019-03-15T23:05:44.075Z,13.43
2019-03-15T23:08:14.010Z,12.87
2019-03-15T23:10:47.012Z,11.40
2019-03-15T23:13:15.530Z,9.43
2019-03-15T23:15:45.397Z,14.63
2019-03-15T23:18:15.279Z,14.80
2019-03-15T23:20:45.062Z,13.23
2019-03-15T23:23:23.840Z,13.63
2019-03-15T23:25:46.840Z,13.03
2019-03-15T23:28:16.945Z,16.43
2019-03-15T23:30:46.875Z,13.67
2019-03-15T23:33:16.691Z,13.17
2019-03-15T23:35:53.917Z,11.97
2019-03-15T23:38:18.108Z,15.57
2019-03-15T23:40:47.980Z,11.93
2019-03-15T23:43:17.905Z,18.60
2019-03-15T23:45:47.849Z,17.93
2019-03-15T23:48:18.241Z,17.80
2019-03-15T23:50:48.207Z,9.87
2019-03-15T23:53:18.066Z,15.43
2019-03-15T23:55:48.026Z,16.57
2019-03-15T23:58:19.028Z,15.33
